Time;durP1;ratioP1;P1;durP2;ratioP2;P2;SDS_P1;SDS_P2;PMS_P1;PMS_P2;Temp;Humidity;BMP_temperature;BMP_pressure;BME280_temperature;BME280_humidity;BME280_pressure;Samples;Min_cycle;Max_cycle;Signal;HPM_P1;HPM_P2
2023/05/26 04:22:33;;;;;;;13.93;6.38;;;;;;;12.46;96.57;100963.44;5089547;28;20324;-66
2023/05/26 04:25:00;;;;;;;14.07;7.13;;;;;;;12.48;96.81;100956.09;5088328;28;20040;-67
2023/05/26 04:27:42;;;;;;;12.52;6.28;;;;;;;12.52;96.37;100964.59;5068008;28;20043;-67
2023/05/26 04:30:30;;;;;;;11.38;6.15;;;;;;;12.40;96.67;100953.44;5068833;28;20496;-67
2023/05/26 04:33:15;;;;;;;11.13;5.93;;;;;;;12.38;97.41;100977.63;5067989;28;20400;-66
2023/05/26 04:35:56;;;;;;;15.02;7.28;;;;;;;12.51;96.77;100977.13;5067604;28;20563;-66
2023/05/26 04:38:21;;;;;;;23.02;10.55;;;;;;;12.47;97.13;100968.63;5084510;28;20090;-66
2023/05/26 04:40:48;;;;;;;14.30;7.38;;;;;;;12.61;96.21;100969.78;5067507;28;20025;-66
2023/05/26 04:43:14;;;;;;;15.15;6.35;;;;;;;12.58;96.20;100977.28;5067627;28;20036;-67
2023/05/26 04:45:42;;;;;;;13.35;6.85;;;;;;;12.53;96.28;100977.81;5084448;28;20037;-67
2023/05/26 04:48:08;;;;;;;14.77;6.60;;;;;;;12.45;96.31;100980.47;5067710;28;20043;-65
2023/05/26 04:50:38;;;;;;;14.02;6.97;;;;;;;12.47;95.83;100978.47;5084040;28;20032;-66
2023/05/26 04:53:05;;;;;;;11.10;6.18;;;;;;;12.42;95.95;100987.00;5084232;28;20127;-66
2023/05/26 04:55:30;;;;;;;19.00;7.18;;;;;;;12.43;95.29;100967.28;5084257;28;20032;-66
2023/05/26 04:57:56;;;;;;;12.93;6.95;;;;;;;12.50;95.54;100972.78;5067346;28;20041;-65
2023/05/26 05:00:22;;;;;;;11.82;5.55;;;;;;;12.69;93.97;100979.63;5066905;28;20128;-65
2023/05/26 05:02:51;;;;;;;14.93;5.82;;;;;;;12.48;94.68;100972.13;5067276;28;20048;-65
2023/05/26 05:05:36;;;;;;;10.75;6.28;;;;;;;12.55;94.06;100983.81;5068482;28;20118;-66
2023/05/26 05:08:02;;;;;;;12.52;6.47;;;;;;;12.63;93.76;100982.97;5066864;28;20485;-66
2023/05/26 05:10:27;;;;;;;15.52;6.35;;;;;;;12.70;92.83;100990.13;5083612;28;20025;-66
2023/05/26 05:12:53;;;;;;;15.38;6.60;;;;;;;12.76;92.48;100993.97;5067124;28;20721;-66
2023/05/26 05:15:20;;;;;;;11.15;5.53;;;;;;;12.85;92.29;100995.66;5083869;28;20033;-65
2023/05/26 05:17:46;;;;;;;10.95;6.35;;;;;;;12.92;91.90;100993.13;5066936;28;20520;-66
2023/05/26 05:20:12;;;;;;;11.73;5.80;;;;;;;12.88;91.59;100994.47;5066639;28;20043;-66
2023/05/26 05:22:38;;;;;;;9.05;5.85;;;;;;;12.88;91.81;100997.13;5083782;28;20162;-65
2023/05/26 05:25:04;;;;;;;12.80;6.32;;;;;;;12.83;92.22;100999.47;5066786;28;20124;-66
2023/05/26 05:27:30;;;;;;;12.68;6.47;;;;;;;12.72;92.63;100998.84;5083572;28;20036;-65
2023/05/26 05:29:56;;;;;;;10.73;6.63;;;;;;;12.88;91.50;100997.13;5067709;28;20040;-65
2023/05/26 05:32:23;;;;;;;9.30;5.47;;;;;;;12.97;90.95;100990.75;5061750;28;20036;-65
2023/05/26 05:34:49;;;;;;;10.02;6.15;;;;;;;12.84;91.87;100988.59;5070247;28;20407;-65
2023/05/26 05:37:14;;;;;;;12.10;5.75;;;;;;;12.96;91.27;101007.81;5070021;28;20037;-66
2023/05/26 05:39:40;;;;;;;13.60;6.55;;;;;;;12.98;91.28;101011.16;5069716;28;20567;-66
2023/05/26 05:42:06;;;;;;;12.55;6.43;;;;;;;13.08;90.30;101008.28;5069955;28;20040;-66
2023/05/26 05:44:32;;;;;;;13.23;6.15;;;;;;;13.05;90.65;101012.16;5053206;28;20037;-66
2023/05/26 05:46:57;;;;;;;13.57;5.85;;;;;;;13.16;90.08;101016.28;5053117;28;20037;-65
2023/05/26 05:49:26;;;;;;;11.07;5.25;;;;;;;13.14;89.73;101013.78;5052886;28;20098;-65
2023/05/26 05:51:53;;;;;;;10.43;5.70;;;;;;;13.07;90.00;101012.81;5069981;28;20033;-65
2023/05/26 05:54:18;;;;;;;10.82;6.32;;;;;;;13.07;90.29;101023.50;5069681;28;20044;-66
2023/05/26 05:56:45;;;;;;;16.90;6.03;;;;;;;13.06;90.36;101021.00;5052883;28;20409;-66
2023/05/26 05:59:12;;;;;;;9.50;5.13;;;;;;;13.10;90.08;101025.81;5052680;28;20037;-66
2023/05/26 06:01:39;;;;;;;8.30;5.93;;;;;;;13.11;90.16;101022.16;5069457;28;20072;-65
2023/05/26 06:04:06;;;;;;;12.48;5.68;;;;;;;13.23;89.65;101018.13;5054297;28;20044;-66
2023/05/26 06:06:32;;;;;;;12.07;6.15;;;;;;;13.39;89.49;101024.47;5052644;28;20033;-68
2023/05/26 06:08:57;;;;;;;10.20;5.95;;;;;;;13.44;89.04;101024.78;5053907;28;20090;-65
2023/05/26 06:11:23;;;;;;;11.13;6.30;;;;;;;13.48;87.84;101026.09;5052754;28;20033;-65
2023/05/26 06:13:48;;;;;;;12.02;5.13;;;;;;;13.43;88.69;101031.97;5052667;28;20033;-67
2023/05/26 06:16:14;;;;;;;11.05;5.80;;;;;;;13.50;87.88;101027.59;5069122;28;20186;-65
2023/05/26 06:18:39;;;;;;;9.65;5.38;;;;;;;13.65;88.01;101029.53;5052553;28;20040;-65
2023/05/26 06:21:06;;;;;;;11.30;5.43;;;;;;;13.71;87.82;101024.31;5052224;28;20060;-65
2023/05/26 06:23:32;;;;;;;10.30;5.68;;;;;;;13.63;86.46;101024.38;5052537;28;20040;-66
2023/05/26 06:25:59;;;;;;;11.45;5.22;;;;;;;13.66;87.20;101020.50;5052416;28;20124;-67
2023/05/26 06:28:25;;;;;;;7.30;4.68;;;;;;;13.73;87.38;101018.78;5068868;28;20386;-53
2023/05/26 06:30:50;;;;;;;13.93;5.47;;;;;;;13.75;87.04;101025.63;5053638;28;20063;-54
2023/05/26 06:33:32;;;;;;;9.80;5.70;;;;;;;13.79;86.55;101018.09;5052369;28;20047;-53
2023/05/26 06:35:58;;;;;;;11.32;5.57;;;;;;;13.83;85.77;101011.38;5052152;28;20037;-55
2023/05/26 06:38:24;;;;;;;14.77;5.95;;;;;;;13.91;86.20;101018.53;5068660;28;20037;-55
2023/05/26 06:40:52;;;;;;;9.88;5.40;;;;;;;14.03;86.25;101014.44;5052088;28;20044;-55
2023/05/26 06:43:18;;;;;;;13.15;5.32;;;;;;;14.10;85.63;101004.69;5051841;28;20037;-66
2023/05/26 06:45:44;;;;;;;12.77;5.65;;;;;;;14.12;85.29;101005.31;5067862;28;20048;-66
2023/05/26 06:48:09;;;;;;;9.80;4.88;;;;;;;14.29;84.93;101006.88;5068575;28;20037;-66
2023/05/26 06:50:43;;;;;;;15.07;5.93;;;;;;;14.40;84.68;101005.63;5068601;28;20029;-67
2023/05/26 06:53:09;;;;;;;9.77;4.90;;;;;;;14.52;81.99;101011.41;5051930;28;20375;-67
2023/05/26 06:55:34;;;;;;;12.90;5.97;;;;;;;14.69;81.52;101001.41;5053039;28;20047;-67
2023/05/26 06:58:00;;;;;;;11.40;4.93;;;;;;;14.79;81.34;101005.47;5051832;28;20136;-67
2023/05/26 07:00:26;;;;;;;8.95;5.15;;;;;;;14.82;80.74;101007.81;5051581;28;20032;-67
2023/05/26 07:03:01;;;;;;;7.78;5.22;;;;;;;14.95;80.19;101009.84;5068498;28;20043;-67
2023/05/26 07:05:30;;;;;;;8.77;5.00;;;;;;;14.99;80.96;101011.13;5051995;28;20037;-66
2023/05/26 07:07:55;;;;;;;11.18;5.38;;;;;;;15.03;80.91;101003.56;5068748;28;20033;-67
2023/05/26 07:10:22;;;;;;;10.68;4.93;;;;;;;15.02;80.10;101015.31;5051373;28;20052;-67
2023/05/26 07:12:48;;;;;;;11.27;6.28;;;;;;;15.10;79.87;101015.22;5068204;28;20032;-67
2023/05/26 07:15:22;;;;;;;10.88;5.70;;;;;;;15.14;79.16;101016.53;5051476;28;20037;-65
2023/05/26 07:17:47;;;;;;;10.95;5.43;;;;;;;15.23;79.04;101014.59;5068008;28;20037;-66
2023/05/26 07:20:12;;;;;;;10.85;5.57;;;;;;;15.37;78.92;101016.44;5068057;28;20502;-66
2023/05/26 07:22:38;;;;;;;10.30;5.60;;;;;;;15.57;76.90;101019.38;5052653;28;20044;-66
2023/05/26 07:25:10;;;;;;;10.90;5.65;;;;;;;15.61;78.22;101010.75;5067861;28;20370;-66
2023/05/26 07:27:47;;;;;;;9.40;5.22;;;;;;;15.74;78.22;101010.13;5051281;28;20402;-66
2023/05/26 07:30:13;;;;;;;10.85;5.82;;;;;;;15.88;77.33;101021.84;5051109;28;20045;-66
2023/05/26 07:32:51;;;;;;;9.85;5.70;;;;;;;15.90;77.34;101015.25;5067749;28;20105;-66
2023/05/26 07:35:18;;;;;;;13.73;5.65;;;;;;;15.88;76.60;101016.50;5050876;28;20040;-66
2023/05/26 07:37:43;;;;;;;11.38;5.63;;;;;;;16.02;76.96;101016.44;5052334;28;20390;-66
2023/05/26 07:40:09;;;;;;;10.85;4.85;;;;;;;16.03;75.91;101017.25;5052050;28;20505;-66
2023/05/26 07:42:34;;;;;;;10.75;5.32;;;;;;;16.29;75.24;101012.16;5052181;28;20118;-66
2023/05/26 07:45:01;;;;;;;12.23;5.93;;;;;;;16.38;73.63;101012.06;5052218;28;20040;-66
2023/05/26 07:47:31;;;;;;;11.02;6.15;;;;;;;16.36;73.43;101012.22;5052059;28;20045;-66
2023/05/26 07:50:00;;;;;;;12.75;5.50;;;;;;;16.53;73.52;101016.31;5051907;28;20040;-66
2023/05/26 07:52:25;;;;;;;10.90;5.97;;;;;;;16.57;72.14;101014.09;5052078;28;20048;-66
2023/05/26 07:54:51;;;;;;;9.48;5.63;;;;;;;16.71;71.13;101007.00;5050983;28;20040;-66
2023/05/26 07:57:16;;;;;;;10.23;4.97;;;;;;;16.94;69.82;101007.56;5051845;28;20065;-66
2023/05/26 07:59:41;;;;;;;9.90;5.90;;;;;;;16.99;69.22;101005.13;5051748;28;20091;-66
2023/05/26 08:02:07;;;;;;;11.45;5.88;;;;;;;17.17;69.95;101009.16;5051997;28;20083;-66
2023/05/26 08:04:32;;;;;;;14.20;5.85;;;;;;;17.20;70.86;101012.28;5051919;28;20076;-66
2023/05/26 08:06:58;;;;;;;12.15;5.82;;;;;;;17.13;69.87;101003.34;5051848;28;20481;-66
2023/05/26 08:09:23;;;;;;;13.05;5.85;;;;;;;17.27;70.70;101009.63;5051691;28;20055;-66
2023/05/26 08:11:48;;;;;;;9.60;5.72;;;;;;;17.31;70.07;101011.72;5051790;28;20044;-66
2023/05/26 08:14:15;;;;;;;12.70;5.55;;;;;;;17.40;69.91;101019.63;5051860;28;20041;-66
2023/05/26 08:16:41;;;;;;;10.80;5.47;;;;;;;17.47;69.51;101015.13;5051827;28;20041;-66
2023/05/26 08:19:06;;;;;;;10.32;5.18;;;;;;;17.66;68.04;101017.06;5051612;28;20167;-66
2023/05/26 08:21:32;;;;;;;10.93;5.28;;;;;;;17.58;68.14;101009.16;5051573;28;20040;-66
2023/05/26 08:23:57;;;;;;;12.88;6.03;;;;;;;17.80;66.14;101013.44;5051895;28;20117;-66
2023/05/26 08:26:22;;;;;;;15.75;5.47;;;;;;;17.69;66.76;101013.16;5051587;28;20456;-66
2023/05/26 08:28:48;;;;;;;12.93;5.43;;;;;;;17.96;65.04;101014.94;5051557;28;20044;-66
2023/05/26 08:31:14;;;;;;;11.00;6.45;;;;;;;17.99;65.09;101017.22;5051581;28;20033;-66
2023/05/26 08:33:39;;;;;;;10.52;6.13;;;;;;;18.16;65.22;101013.13;5051574;28;20116;-66
2023/05/26 08:36:05;;;;;;;11.85;6.25;;;;;;;18.25;65.04;101010.22;5051558;28;20074;-66
2023/05/26 08:38:30;;;;;;;13.27;6.03;;;;;;;18.41;63.58;101007.16;5051352;28;20123;-66
2023/05/26 08:40:57;;;;;;;12.38;5.82;;;;;;;18.60;62.65;101008.19;5051555;28;20052;-66
2023/05/26 08:43:33;;;;;;;13.25;6.00;;;;;;;18.57;63.24;101008.59;5051466;28;20029;-66
2023/05/26 08:46:01;;;;;;;11.77;5.72;;;;;;;18.75;64.09;101002.59;5051435;28;20178;-66
2023/05/26 08:48:26;;;;;;;13.55;5.70;;;;;;;18.90;62.54;101008.59;5051218;28;20131;-66
2023/05/26 08:50:54;;;;;;;9.98;5.63;;;;;;;18.91;62.74;101013.81;5051747;28;20128;-66
2023/05/26 08:53:23;;;;;;;9.82;5.35;;;;;;;19.02;61.99;101006.94;5051592;28;20478;-66
2023/05/26 08:55:49;;;;;;;14.15;6.57;;;;;;;19.24;61.71;101018.34;5051708;28;20040;-66
2023/05/26 08:58:16;;;;;;;11.65;6.18;;;;;;;19.17;60.26;101017.50;5051199;28;20041;-66
2023/05/26 09:00:45;;;;;;;13.13;6.45;;;;;;;19.22;60.23;101018.53;5051280;28;20437;-66
2023/05/26 09:03:10;;;;;;;11.43;5.75;;;;;;;19.42;59.93;101018.47;5051292;28;20044;-66
2023/05/26 09:05:35;;;;;;;18.73;6.70;;;;;;;19.57;59.83;101018.22;5051172;28;20040;-66
2023/05/26 09:08:01;;;;;;;11.55;5.25;;;;;;;19.80;59.01;101020.44;5052938;28;20056;-67
2023/05/26 09:10:31;;;;;;;10.30;5.93;;;;;;;19.80;58.61;101015.03;5054785;28;20044;-65
2023/05/26 09:13:12;;;;;;;15.10;6.22;;;;;;;20.14;58.49;101024.59;5053860;28;20486;-65
2023/05/26 09:15:38;;;;;;;10.30;6.00;;;;;;;20.46;56.12;101020.06;5055080;28;20036;-66
2023/05/26 09:18:08;;;;;;;10.85;5.50;;;;;;;20.04;56.64;101017.00;5055205;28;20049;-65
2023/05/26 09:20:38;;;;;;;10.00;6.03;;;;;;;20.30;56.91;101023.28;5054968;28;20047;-65
2023/05/26 09:23:04;;;;;;;11.20;6.35;;;;;;;20.63;55.58;101020.34;5054986;28;20116;-64
2023/05/26 09:25:33;;;;;;;11.40;6.05;;;;;;;20.66;54.97;101013.66;5054768;28;20585;-64
2023/05/26 09:28:01;;;;;;;13.80;5.95;;;;;;;20.74;55.51;101018.81;5054873;28;20028;-63
2023/05/26 09:30:38;;;;;;;12.45;6.03;;;;;;;20.91;54.16;101022.59;5054541;28;20033;-64
2023/05/26 09:33:05;;;;;;;13.25;6.55;;;;;;;21.02;53.29;101023.75;5054897;28;20112;-64
2023/05/26 09:35:36;;;;;;;12.55;5.03;;;;;;;21.38;52.65;101017.56;5054603;28;20048;-65
2023/05/26 09:38:09;;;;;;;11.18;5.80;;;;;;;21.07;52.82;101010.38;5054659;28;20044;-65
2023/05/26 09:40:34;;;;;;;11.35;6.38;;;;;;;21.23;51.08;101014.38;5054288;28;20064;-65
2023/05/26 09:43:00;;;;;;;13.85;6.55;;;;;;;21.44;50.74;101007.72;5054799;28;20031;-65
2023/05/26 09:45:33;;;;;;;11.98;6.30;;;;;;;21.47;51.23;101013.50;5054307;28;20072;-64
2023/05/26 09:47:59;;;;;;;12.20;6.25;;;;;;;21.87;50.46;101016.56;5054507;28;20028;-65
2023/05/26 09:50:25;;;;;;;11.63;6.53;;;;;;;21.96;49.58;101014.34;5054024;28;20405;-67
2023/05/26 09:52:51;;;;;;;11.48;6.50;;;;;;;22.33;49.11;101019.69;5054333;28;20036;-66
2023/05/26 09:55:17;;;;;;;10.40;5.72;;;;;;;22.03;49.22;101020.50;5054420;28;20425;-66
2023/05/26 09:57:46;;;;;;;15.65;6.15;;;;;;;22.17;48.34;101015.75;5054320;28;20045;-66
2023/05/26 10:00:16;;;;;;;11.73;6.13;;;;;;;22.45;47.41;101013.22;5053979;28;20075;-66
2023/05/26 10:02:42;;;;;;;13.48;6.00;;;;;;;22.61;47.71;101005.44;5054183;28;20037;-65
2023/05/26 10:05:08;;;;;;;14.50;6.18;;;;;;;22.84;47.21;101010.09;5054127;28;20033;-65
2023/05/26 10:07:34;;;;;;;14.27;6.38;;;;;;;22.54;46.33;101005.56;5053896;28;20083;-64
2023/05/26 10:10:01;;;;;;;14.77;6.30;;;;;;;23.12;46.46;101017.53;5053922;28;20041;-65
2023/05/26 10:12:30;;;;;;;11.15;5.20;;;;;;;23.37;45.93;101020.00;5053899;28;20087;-65
2023/05/26 10:14:56;;;;;;;14.27;6.03;;;;;;;23.44;45.04;101018.81;5053843;28;20124;-65
2023/05/26 10:17:23;;;;;;;16.15;6.47;;;;;;;23.65;45.48;101016.53;5053832;28;20508;-65
2023/05/26 10:19:49;;;;;;;11.25;6.07;;;;;;;23.68;45.05;101007.91;5053544;28;20111;-65
2023/05/26 10:22:21;;;;;;;10.30;5.45;;;;;;;24.25;44.20;101016.03;5053779;28;20041;-65
2023/05/26 10:24:53;;;;;;;9.00;5.68;;;;;;;24.10;43.44;101009.25;5053986;28;20120;-65
2023/05/26 10:27:29;;;;;;;13.15;6.55;;;;;;;24.45;42.37;101011.00;5053756;28;20055;-65
2023/05/26 10:30:04;;;;;;;12.95;6.68;;;;;;;24.15;43.26;101011.25;5053626;28;20086;-64
2023/05/26 10:32:55;;;;;;;15.23;6.40;;;;;;;24.76;41.40;101000.56;5053498;28;20044;-64
2023/05/26 10:35:28;;;;;;;11.57;5.65;;;;;;;24.24;42.00;101006.22;5053686;28;20087;-65
2023/05/26 10:38:02;;;;;;;12.70;6.18;;;;;;;24.78;40.72;100998.44;5053679;28;20040;-65
2023/05/26 10:40:37;;;;;;;10.98;5.55;;;;;;;24.98;39.83;100997.94;5053310;28;20037;-65
2023/05/26 10:43:18;;;;;;;12.90;6.47;;;;;;;25.04;40.35;101002.34;5053581;28;20051;-65
2023/05/26 10:45:57;;;;;;;13.30;6.43;;;;;;;25.22;40.93;100995.81;5053338;28;20098;-66
2023/05/26 10:48:37;;;;;;;9.85;5.63;;;;;;;25.59;40.13;100994.13;5053130;28;20556;-65
2023/05/26 10:51:02;;;;;;;15.65;6.93;;;;;;;24.77;40.68;100999.50;5053300;28;20077;-65
2023/05/26 10:53:32;;;;;;;10.68;6.00;;;;;;;25.24;39.82;100993.69;5053276;28;20064;-65
2023/05/26 10:56:02;;;;;;;12.65;6.03;;;;;;;25.33;40.22;100981.25;5053283;28;20592;-65
2023/05/26 10:58:33;;;;;;;13.02;5.75;;;;;;;25.89;38.05;100992.84;5052955;28;20045;-65
2023/05/26 11:01:09;;;;;;;11.27;5.72;;;;;;;25.90;38.47;100989.88;5053112;28;20040;-65
2023/05/26 11:03:44;;;;;;;11.05;5.75;;;;;;;26.73;36.84;100998.56;5052960;28;20402;-65
2023/05/26 11:06:13;;;;;;;9.27;5.35;;;;;;;26.40;37.26;100996.06;5053255;28;20398;-65
2023/05/26 11:08:43;;;;;;;10.18;4.97;;;;;;;26.46;35.67;100992.31;5052811;28;20041;-65
2023/05/26 11:11:10;;;;;;;11.48;4.97;;;;;;;26.93;37.19;100986.09;5053003;28;20033;-66
2023/05/26 11:13:42;;;;;;;;;;;;;;;27.49;35.99;100983.66;5052123;28;20033;-65
2023/05/26 11:16:14;;;;;;;8.93;5.22;;;;;;;27.71;35.62;100986.22;5068271;28;20011;-65
2023/05/26 11:18:47;;;;;;;10.65;5.63;;;;;;;28.04;34.27;100979.47;5052688;28;20490;-66
2023/05/26 11:21:13;;;;;;;7.78;5.43;;;;;;;27.22;34.97;100981.09;5052706;28;20029;-65
2023/05/26 11:23:38;;;;;;;10.25;5.88;;;;;;;27.23;35.39;100971.78;5052675;28;20675;-66
2023/05/26 11:26:14;;;;;;;7.68;5.15;;;;;;;26.98;36.92;100972.44;5052661;28;20047;-66
2023/05/26 11:28:45;;;;;;;8.60;5.23;;;;;;;27.90;35.55;100978.34;5052398;28;20394;-65
2023/05/26 11:31:16;;;;;;;8.77;4.63;;;;;;;28.19;34.54;100974.00;5052100;28;20224;-66
2023/05/26 11:33:43;;;;;;;9.75;5.28;;;;;;;27.42;34.54;100977.63;5052570;28;20443;-66
2023/05/26 11:36:10;;;;;;;9.18;4.80;;;;;;;27.87;34.34;100978.88;5052564;28;20036;-66
2023/05/26 11:38:37;;;;;;;11.70;5.18;;;;;;;27.82;34.15;100969.56;5052026;28;20033;-66
2023/05/26 11:41:07;;;;;;;10.40;5.47;;;;;;;28.16;34.22;100968.22;5052468;28;20024;-67
2023/05/26 11:43:34;;;;;;;10.90;5.88;;;;;;;27.70;33.51;100963.50;5052333;28;20469;-67
2023/05/26 11:46:02;;;;;;;7.75;5.20;;;;;;;28.23;34.13;100961.38;5052205;28;20070;-67
2023/05/26 11:48:35;;;;;;;9.05;4.97;;;;;;;28.72;33.94;100960.84;5052134;28;20363;-67
2023/05/26 11:51:06;;;;;;;9.45;5.22;;;;;;;28.63;32.12;100960.59;5052340;28;20375;-67
2023/05/26 11:53:32;;;;;;;9.85;5.00;;;;;;;28.78;32.43;100962.47;5052190;28;20051;-66
2023/05/26 11:56:33;;;;;;;9.30;5.30;;;;;;;29.02;31.95;100967.41;5052121;28;20033;-66
2023/05/26 11:59:00;;;;;;;9.30;4.80;;;;;;;29.09;31.93;100963.25;5051918;28;20025;-67
2023/05/26 12:01:26;;;;;;;9.93;4.75;;;;;;;29.10;31.99;100958.59;5052148;28;20036;-66
2023/05/26 12:03:52;;;;;;;10.95;5.15;;;;;;;29.31;31.92;100959.31;5052152;28;20037;-67
2023/05/26 12:06:20;;;;;;;9.40;4.88;;;;;;;28.95;32.35;100962.19;5052027;28;20514;-66
2023/05/26 12:08:54;;;;;;;8.15;4.60;;;;;;;29.45;31.75;100950.19;5051718;28;20134;-67
2023/05/26 12:11:22;;;;;;;6.97;4.28;;;;;;;29.33;32.01;100937.91;5051207;28;20043;-66
2023/05/26 12:14:06;;;;;;;8.52;4.80;;;;;;;29.80;31.67;100951.16;5049100;28;20090;-67
2023/05/26 12:16:40;;;;;;;9.00;4.65;;;;;;;29.52;31.79;100958.16;5049607;28;20029;-67
2023/05/26 12:19:11;;;;;;;7.68;5.15;;;;;;;29.40;31.76;100941.97;5048902;28;20054;-67
2023/05/26 12:21:56;;;;;;;8.48;4.75;;;;;;;29.52;31.81;100941.69;5051487;28;20036;-66
2023/05/26 12:24:30;;;;;;;8.25;5.22;;;;;;;28.91;32.64;100933.66;5050980;28;20405;-65
2023/05/26 12:26:56;;;;;;;7.93;4.53;;;;;;;29.93;31.20;100928.53;5051371;28;20060;-66
2023/05/26 12:29:21;;;;;;;9.20;5.32;;;;;;;30.19;30.80;100922.84;5051213;28;20068;-66
2023/05/26 12:31:49;;;;;;;10.83;4.67;;;;;;;29.98;30.49;100931.22;5051268;28;20029;-65
2023/05/26 12:34:17;;;;;;;8.52;4.95;;;;;;;30.07;31.02;100934.19;5051442;28;20494;-66
2023/05/26 12:36:44;;;;;;;9.45;5.07;;;;;;;30.14;31.19;100931.16;5051262;28;20092;-66
2023/05/26 12:39:10;;;;;;;7.43;5.03;;;;;;;29.14;30.91;100924.00;5051087;28;20394;-66
2023/05/26 12:41:36;;;;;;;7.67;4.80;;;;;;;29.73;30.22;100929.50;5051169;28;20044;-66
2023/05/26 12:44:02;;;;;;;7.43;4.37;;;;;;;30.12;30.51;100925.91;5054580;28;20048;-65
2023/05/26 12:46:30;;;;;;;6.17;4.83;;;;;;;30.46;30.20;100925.09;5055283;28;20441;-65
2023/05/26 12:48:56;;;;;;;7.28;4.05;;;;;;;30.18;28.00;100923.97;5054845;28;20048;-67
2023/05/26 12:51:22;;;;;;;11.88;4.10;;;;;;;30.26;27.83;100920.63;5055109;28;20053;-66
2023/05/26 12:53:47;;;;;;;7.60;4.77;;;;;;;30.33;28.62;100915.59;5055218;28;20513;-65
2023/05/26 12:56:13;;;;;;;6.53;4.20;;;;;;;30.09;29.83;100915.50;5054851;28;20025;-66
2023/05/26 12:58:40;;;;;;;9.70;5.03;;;;;;;30.37;29.96;100907.59;5054805;28;20040;-66
2023/05/26 13:01:14;;;;;;;8.40;4.68;;;;;;;29.73;29.67;100918.53;5049779;28;20029;-66
2023/05/26 13:03:42;;;;;;;10.13;4.75;;;;;;;30.42;31.01;100922.09;5055044;28;20037;-66
2023/05/26 13:06:09;;;;;;;10.35;4.75;;;;;;;31.00;28.21;100912.97;5052416;28;20375;-65
2023/05/26 13:08:35;;;;;;;9.82;4.30;;;;;;;30.93;27.53;100913.34;5054565;28;20048;-66
2023/05/26 13:11:01;;;;;;;8.63;4.53;;;;;;;30.27;29.78;100911.25;5054724;28;20037;-66
2023/05/26 13:13:27;;;;;;;8.57;4.70;;;;;;;29.87;30.82;100913.22;5052321;28;20024;-66
2023/05/26 13:15:52;;;;;;;7.25;4.85;;;;;;;29.13;31.44;100909.47;5054816;28;20753;-66
2023/05/26 13:18:19;;;;;;;7.40;4.38;;;;;;;28.75;31.80;100896.41;5054517;28;20029;-64
2023/05/26 13:20:45;;;;;;;8.63;4.93;;;;;;;28.86;32.43;100896.13;5054682;28;20037;-66
2023/05/26 13:23:10;;;;;;;7.80;4.47;;;;;;;27.91;32.40;100900.59;5054893;28;20101;-65
2023/05/26 13:25:35;;;;;;;9.63;5.07;;;;;;;26.72;34.50;100890.31;5054951;28;20486;-66
2023/05/26 13:28:01;;;;;;;8.35;4.65;;;;;;;27.36;34.30;100907.56;5053643;28;20040;-66
2023/05/26 13:30:27;;;;;;;7.45;5.18;;;;;;;27.03;34.89;100907.69;5054398;28;20478;-66
2023/05/26 13:32:54;;;;;;;8.75;5.10;;;;;;;26.42;35.61;100898.34;5054749;28;20044;-66
2023/05/26 13:35:20;;;;;;;8.63;5.13;;;;;;;26.82;35.47;100900.50;5054738;28;20045;-67
2023/05/26 13:37:46;;;;;;;8.10;4.30;;;;;;;26.70;35.29;100888.94;5054627;28;20052;-66
2023/05/26 13:40:12;;;;;;;8.63;4.93;;;;;;;26.62;34.97;100886.72;5054350;28;20025;-67
2023/05/26 13:42:38;;;;;;;9.02;4.95;;;;;;;26.47;35.92;100885.56;5054576;28;20751;-67
2023/05/26 13:45:05;;;;;;;8.82;5.10;;;;;;;26.56;36.50;100888.59;5054452;28;20036;-67
2023/05/26 13:47:31;;;;;;;9.60;5.72;;;;;;;26.52;36.09;100888.28;5054589;28;20041;-67
2023/05/26 13:49:57;;;;;;;8.43;4.95;;;;;;;26.08;36.61;100881.38;5054192;28;20028;-66
2023/05/26 13:52:22;;;;;;;7.75;5.38;;;;;;;26.07;37.23;100880.56;5054373;28;20394;-67
2023/05/26 13:54:48;;;;;;;8.70;4.80;;;;;;;26.17;36.72;100877.91;5053852;28;20037;-67
2023/05/26 13:57:13;;;;;;;8.55;4.82;;;;;;;25.90;36.65;100875.25;5054214;28;20045;-68
2023/05/26 13:59:39;;;;;;;9.63;5.95;;;;;;;25.77;37.51;100875.69;5053751;28;20037;-66
2023/05/26 14:02:05;;;;;;;9.90;5.32;;;;;;;25.82;37.31;100877.59;5054263;28;20509;-67
2023/05/26 14:04:31;;;;;;;10.07;5.03;;;;;;;25.97;37.16;100877.75;5054373;28;20251;-66
2023/05/26 14:06:56;;;;;;;8.43;4.82;;;;;;;25.83;36.77;100869.19;5054104;28;20597;-67
2023/05/26 14:09:21;;;;;;;8.98;4.55;;;;;;;25.45;37.03;100864.69;5053782;28;20033;-67
2023/05/26 14:11:47;;;;;;;8.95;4.95;;;;;;;25.60;36.90;100869.47;5053855;28;20051;-66
2023/05/26 14:14:12;;;;;;;7.57;4.03;;;;;;;25.52;36.43;100870.75;5054093;28;20068;-67
2023/05/26 14:16:38;;;;;;;6.95;4.65;;;;;;;25.42;37.34;100870.66;5053854;28;20041;-67
2023/05/26 14:19:03;;;;;;;7.60;4.15;;;;;;;24.76;36.81;100876.09;5053588;28;20478;-66
2023/05/26 14:21:29;;;;;;;8.73;4.28;;;;;;;25.09;36.65;100860.72;5053719;28;20092;-67
2023/05/26 14:23:54;;;;;;;7.05;4.35;;;;;;;25.15;37.57;100863.25;5053662;28;20094;-67
2023/05/26 14:26:20;;;;;;;7.30;4.43;;;;;;;25.30;38.06;100853.59;5053675;28;20505;-67
2023/05/26 14:28:46;;;;;;;7.10;4.00;;;;;;;25.20;37.37;100853.50;5053503;28;20029;-66
2023/05/26 14:31:13;;;;;;;8.65;4.85;;;;;;;25.33;37.73;100856.66;5053612;28;20037;-67
2023/05/26 14:33:39;;;;;;;7.97;4.90;;;;;;;25.32;37.57;100857.75;5053727;28;20037;-67
2023/05/26 14:36:05;;;;;;;5.78;4.00;;;;;;;25.02;37.78;100860.91;5053479;28;20052;-67
2023/05/26 14:38:30;;;;;;;7.28;4.80;;;;;;;25.08;39.41;100856.38;5053186;28;20040;-67
2023/05/26 14:40:56;;;;;;;7.00;4.32;;;;;;;25.26;38.33;100858.75;5053321;28;20040;-66
2023/05/26 14:43:21;;;;;;;8.02;4.70;;;;;;;25.13;37.46;100854.53;5053419;28;20044;-67
2023/05/26 14:45:47;;;;;;;8.10;3.97;;;;;;;25.26;37.02;100850.59;5053300;28;20111;-67
2023/05/26 14:48:12;;;;;;;6.15;4.15;;;;;;;25.23;37.35;100850.25;5053380;28;20040;-66
2023/05/26 14:50:38;;;;;;;7.88;4.75;;;;;;;25.25;36.91;100853.56;5052951;28;20475;-67
2023/05/26 14:53:03;;;;;;;5.93;3.97;;;;;;;25.19;37.41;100852.69;5053228;28;20032;-67
2023/05/26 14:55:29;;;;;;;8.68;4.90;;;;;;;24.92;36.79;100849.88;5053273;28;20483;-66
2023/05/26 14:57:55;;;;;;;9.98;4.72;;;;;;;24.86;36.78;100854.44;5051764;28;20085;-66
2023/05/26 15:00:20;;;;;;;8.00;4.28;;;;;;;25.02;36.94;100847.28;5052739;28;20048;-65
2023/05/26 15:02:45;;;;;;;8.32;4.38;;;;;;;24.81;37.84;100854.38;5053315;28;20060;-53
2023/05/26 15:05:11;;;;;;;6.90;3.78;;;;;;;24.80;37.19;100849.19;5051948;28;20091;-50
2023/05/26 15:07:37;;;;;;;9.27;4.47;;;;;;;24.42;37.82;100841.84;5052874;28;20083;-55
2023/05/26 15:10:03;;;;;;;6.97;3.92;;;;;;;24.56;39.35;100849.41;5052537;28;20040;-50
2023/05/26 15:12:30;;;;;;;8.40;4.07;;;;;;;24.71;39.16;100847.97;5051613;28;20119;-53
2023/05/26 15:14:56;;;;;;;6.00;3.80;;;;;;;24.79;38.32;100842.09;5052927;28;20037;-52
2023/05/26 15:17:22;;;;;;;8.65;4.68;;;;;;;24.69;38.59;100844.69;5052669;28;20098;-55
2023/05/26 15:19:47;;;;;;;7.53;4.85;;;;;;;24.60;38.76;100839.66;5052357;28;20036;-55
2023/05/26 15:22:12;;;;;;;6.35;4.15;;;;;;;24.49;38.25;100837.06;5052618;28;20025;-51
2023/05/26 15:24:38;;;;;;;8.80;4.32;;;;;;;24.29;38.32;100830.22;5052619;28;20108;-55
2023/05/26 15:27:03;;;;;;;10.57;4.93;;;;;;;24.29;38.03;100841.09;5052645;28;20135;-57
2023/05/26 15:29:29;;;;;;;6.15;3.97;;;;;;;24.55;38.04;100836.88;5052316;28;20040;-54
2023/05/26 15:31:54;;;;;;;6.97;3.55;;;;;;;24.42;37.00;100837.22;5052361;28;20037;-57
2023/05/26 15:34:20;;;;;;;6.53;3.97;;;;;;;24.34;36.50;100813.16;5052475;28;20037;-57
2023/05/26 15:36:48;;;;;;;7.82;4.18;;;;;;;24.14;38.11;100840.06;5052377;28;20029;-53
2023/05/26 15:39:18;;;;;;;7.25;4.55;;;;;;;24.17;38.79;100842.25;5051943;28;20410;-56
2023/05/26 15:41:43;;;;;;;8.82;4.30;;;;;;;24.17;38.58;100837.66;5052432;28;20044;-58
2023/05/26 15:44:09;;;;;;;9.10;4.40;;;;;;;24.15;39.35;100831.63;5052346;28;20040;-54
2023/05/26 15:46:35;;;;;;;7.57;4.50;;;;;;;24.20;39.36;100837.16;5052202;28;20076;-58